createdAt,value
2023-03-12T00:46:42.307Z,1.92
2023-03-12T01:06:42.315Z,1.70
2023-03-12T01:26:42.306Z,1.70
2023-03-12T01:46:42.307Z,1.65
2023-03-12T02:06:42.277Z,1.74
2023-03-12T02:26:42.287Z,1.55
2023-03-12T03:06:42.286Z,1.65
2023-03-12T03:26:42.278Z,1.63
2023-03-12T04:06:42.252Z,1.62
2023-03-12T04:26:42.250Z,1.52
2023-03-12T04:46:42.249Z,1.25
2023-03-12T05:06:42.251Z,1.32
2023-03-12T05:26:42.249Z,1.44
2023-03-12T05:46:42.246Z,1.62
2023-03-12T06:06:42.223Z,1.58
2023-03-12T06:26:42.242Z,1.79
2023-03-12T06:46:42.207Z,1.97
2023-03-12T07:06:42.233Z,2.19
2023-03-12T07:26:42.215Z,2.34
2023-03-12T07:46:42.352Z,2.72
2023-03-12T08:06:42.307Z,3.07
2023-03-12T08:26:49.178Z,3.45
2023-03-12T08:46:42.187Z,3.76
2023-03-12T09:06:42.258Z,4.23
2023-03-12T09:46:42.142Z,4.87
2023-03-12T10:06:42.137Z,4.80
2023-03-12T10:26:42.119Z,4.84
2023-03-12T10:46:42.105Z,4.97
2023-03-12T11:06:42.112Z,4.83
2023-03-12T11:26:42.079Z,4.71
2023-03-12T11:46:42.151Z,4.83
2023-03-12T12:06:42.091Z,4.93
2023-03-12T12:26:42.056Z,5.04
2023-03-12T13:06:42.023Z,5.44
2023-03-12T13:26:42.038Z,5.74
2023-03-12T14:06:42.000Z,6.67
2023-03-12T14:26:41.990Z,7.49
2023-03-12T14:46:41.962Z,7.76
2023-03-12T15:06:41.940Z,7.86
2023-03-12T15:26:42.010Z,7.78
2023-03-12T15:46:41.909Z,7.78
2023-03-12T16:06:41.894Z,7.76
2023-03-12T16:26:41.891Z,7.68
2023-03-12T16:46:41.941Z,7.56
2023-03-12T17:06:41.871Z,7.38
2023-03-12T17:26:41.848Z,7.23
2023-03-12T17:46:41.822Z,6.93
2023-03-12T18:06:41.794Z,6.55
2023-03-12T18:26:41.788Z,6.29
2023-03-12T18:46:41.776Z,6.06
2023-03-12T19:06:41.748Z,5.88
2023-03-12T19:26:41.839Z,5.74
2023-03-12T19:46:41.761Z,5.72
2023-03-12T20:06:41.782Z,5.57
2023-03-12T20:26:41.829Z,5.45
2023-03-12T20:46:41.693Z,5.44
2023-03-12T21:06:41.670Z,5.42
2023-03-12T21:26:41.657Z,5.40
2023-03-12T21:46:41.689Z,5.32
2023-03-12T22:06:41.645Z,5.31
2023-03-12T22:26:41.628Z,5.34
2023-03-12T22:46:41.610Z,5.34
2023-03-12T23:06:41.615Z,5.29
2023-03-12T23:26:41.584Z,5.34
2023-03-12T23:46:41.598Z,5.28
